createdAt,value
2023-01-20T00:01:36.505Z,44.85
2023-01-20T00:04:03.695Z,48.80
2023-01-20T00:06:30.812Z,51.13
2023-01-20T00:09:01.430Z,47.58
2023-01-20T00:11:31.527Z,46.67
2023-01-20T00:14:01.587Z,43.50
2023-01-20T00:16:31.136Z,48.25
2023-01-20T00:18:58.690Z,47.10
2023-01-20T00:21:26.006Z,45.35
2023-01-20T00:23:53.141Z,47.63
2023-01-20T00:26:22.888Z,47.17
2023-01-20T00:28:52.987Z,44.28
2023-01-20T00:31:28.654Z,42.63
2023-01-20T00:33:58.231Z,46.40
2023-01-20T00:36:26.857Z,44.55
2023-01-20T00:38:54.300Z,43.45
2023-01-20T00:41:21.391Z,45.30
2023-01-20T00:43:48.395Z,43.55
2023-01-20T00:46:16.226Z,47.17
2023-01-20T00:48:43.593Z,43.13
2023-01-20T00:51:11.440Z,42.60
2023-01-20T00:53:38.721Z,40.83
2023-01-20T00:56:06.460Z,43.42
2023-01-20T00:58:33.917Z,43.10
2023-01-20T01:01:01.471Z,48.08
2023-01-20T01:03:29.086Z,45.22
2023-01-20T01:06:09.678Z,44.38
2023-01-20T01:08:37.071Z,44.38
2023-01-20T01:11:05.297Z,43.30
2023-01-20T01:13:33.364Z,42.55
2023-01-20T01:16:00.915Z,41.65
2023-01-20T01:18:28.178Z,39.70
2023-01-20T01:20:56.828Z,41.92
2023-01-20T01:23:23.903Z,41.42
2023-01-20T01:25:51.183Z,44.05
2023-01-20T01:28:18.323Z,42.85
2023-01-20T01:30:45.745Z,41.38
2023-01-20T01:33:13.110Z,44.05
2023-01-20T01:35:40.172Z,44.60
2023-01-20T01:38:07.155Z,46.08
2023-01-20T01:40:35.202Z,42.17
2023-01-20T01:43:02.295Z,43.83
2023-01-20T01:45:30.676Z,43.10
2023-01-20T01:48:10.699Z,42.40
2023-01-20T01:50:47.469Z,40.92
2023-01-20T01:53:15.991Z,42.15
2023-01-20T01:55:49.976Z,42.80
2023-01-20T01:58:20.296Z,43.53
2023-01-20T02:00:47.716Z,41.00
2023-01-20T02:03:15.079Z,40.22
2023-01-20T02:05:43.988Z,41.70
2023-01-20T02:08:11.169Z,41.50
2023-01-20T02:10:38.247Z,46.15
2023-01-20T02:13:05.762Z,44.40
2023-01-20T02:16:04.432Z,46.15
2023-01-20T02:18:41.907Z,42.83
2023-01-20T02:21:27.255Z,40.53
2023-01-20T02:24:18.476Z,43.53
2023-01-20T02:27:11.541Z,40.95
2023-01-20T02:30:18.542Z,40.30
2023-01-20T02:33:09.979Z,44.80
2023-01-20T02:35:48.052Z,38.97
2023-01-20T02:38:51.222Z,42.78
2023-01-20T02:41:34.449Z,41.92
2023-01-20T02:46:50.788Z,40.55
2023-01-20T02:49:31.846Z,40.42
2023-01-20T02:52:12.113Z,44.03
2023-01-20T02:54:42.313Z,42.90
2023-01-20T02:57:14.379Z,40.85
2023-01-20T02:59:46.381Z,39.28
2023-01-20T03:02:20.434Z,41.13
2023-01-20T03:04:50.122Z,41.20
2023-01-20T03:07:21.563Z,35.13
2023-01-20T03:09:51.757Z,43.88
2023-01-20T03:12:31.787Z,39.40
2023-01-20T03:14:59.057Z,37.63
2023-01-20T03:17:26.517Z,39.58
2023-01-20T03:19:53.897Z,37.42
2023-01-20T03:22:21.196Z,39.70
2023-01-20T03:24:49.275Z,39.78
2023-01-20T03:27:16.460Z,37.08
2023-01-20T03:29:43.544Z,38.42
2023-01-20T03:32:11.701Z,45.58
2023-01-20T03:34:41.879Z,38.17
2023-01-20T03:37:11.328Z,40.63
2023-01-20T03:39:40.108Z,36.90
2023-01-20T03:42:16.947Z,40.17
2023-01-20T03:45:24.664Z,37.17
2023-01-20T03:48:06.249Z,36.95
2023-01-20T03:51:01.305Z,39.70
2023-01-20T03:53:51.621Z,39.72
2023-01-20T03:56:28.580Z,36.22
2023-01-20T03:58:58.034Z,39.22
2023-01-20T04:01:34.446Z,40.53
2023-01-20T04:04:04.136Z,37.40
2023-01-20T04:06:34.286Z,36.22
2023-01-20T04:09:15.636Z,36.55
2023-01-20T04:11:42.783Z,37.55
2023-01-20T04:14:10.211Z,37.20
2023-01-20T04:16:38.055Z,37.90
2023-01-20T04:19:05.074Z,39.22
2023-01-20T04:21:43.984Z,36.40
2023-01-20T04:24:32.479Z,39.13
2023-01-20T04:26:59.689Z,39.03
2023-01-20T04:29:26.719Z,39.13
2023-01-20T04:32:03.790Z,36.20
2023-01-20T04:34:31.089Z,40.47
2023-01-20T04:36:58.198Z,36.05
2023-01-20T04:39:25.320Z,38.38
2023-01-20T04:41:52.367Z,36.33
2023-01-20T04:44:19.454Z,37.45
2023-01-20T04:46:47.524Z,36.63
2023-01-20T04:49:15.100Z,37.53
2023-01-20T04:51:42.331Z,37.72
2023-01-20T04:54:09.444Z,38.75
2023-01-20T04:56:36.492Z,35.97
2023-01-20T04:59:03.584Z,40.58
2023-01-20T05:01:30.720Z,39.85
2023-01-20T05:03:57.773Z,36.55
2023-01-20T05:06:24.823Z,39.70
2023-01-20T05:08:52.216Z,35.90
2023-01-20T05:11:19.540Z,39.35
2023-01-20T05:13:46.707Z,37.55
2023-01-20T05:16:14.169Z,35.80
2023-01-20T05:18:41.401Z,36.42
2023-01-20T05:21:23.825Z,38.47
2023-01-20T05:23:53.497Z,37.72
2023-01-20T05:26:22.387Z,37.90
2023-01-20T05:28:49.595Z,34.38
2023-01-20T05:31:17.044Z,36.20
2023-01-20T05:33:44.683Z,38.00
2023-01-20T05:36:12.703Z,38.72
2023-01-20T05:38:39.894Z,38.90
2023-01-20T05:41:08.827Z,40.92
2023-01-20T05:43:36.780Z,40.67
2023-01-20T05:46:04.985Z,39.67
2023-01-20T05:48:33.098Z,36.95
2023-01-20T05:51:00.266Z,33.63
2023-01-20T05:53:27.395Z,38.88
2023-01-20T05:56:05.924Z,38.22
2023-01-20T05:58:33.698Z,39.85
2023-01-20T06:01:09.380Z,39.85
2023-01-20T06:03:36.722Z,40.47
2023-01-20T06:06:05.895Z,37.60
2023-01-20T06:08:34.109Z,39.45
2023-01-20T06:11:01.181Z,37.90
2023-01-20T06:13:28.357Z,38.03
2023-01-20T06:15:56.281Z,39.60
2023-01-20T06:18:24.409Z,39.40
2023-01-20T06:20:51.587Z,39.88
2023-01-20T06:23:18.747Z,37.75
2023-01-20T06:25:45.845Z,40.78
2023-01-20T06:28:13.032Z,39.88
2023-01-20T06:30:43.270Z,38.08
2023-01-20T06:33:11.799Z,37.10
2023-01-20T06:35:38.874Z,39.53
2023-01-20T06:38:06.287Z,39.20
2023-01-20T06:40:33.442Z,38.13
2023-01-20T06:43:00.921Z,39.03
2023-01-20T06:45:29.694Z,38.78
2023-01-20T06:47:56.746Z,37.95
2023-01-20T06:50:23.858Z,40.58
2023-01-20T06:52:50.966Z,40.45
2023-01-20T06:55:18.331Z,38.85
2023-01-20T06:57:45.556Z,35.92
2023-01-20T07:00:13.476Z,38.28
2023-01-20T07:02:40.643Z,37.17
2023-01-20T07:05:09.707Z,36.92
2023-01-20T07:07:36.906Z,39.83
2023-01-20T07:10:04.568Z,38.97
2023-01-20T07:12:31.688Z,39.05
2023-01-20T07:14:58.768Z,39.00
2023-01-20T07:17:26.887Z,39.05
2023-01-20T07:19:53.913Z,41.42
2023-01-20T07:22:20.975Z,36.38
2023-01-20T07:24:48.176Z,39.38
2023-01-20T07:27:15.255Z,41.00
2023-01-20T07:29:42.680Z,38.53
2023-01-20T07:32:09.746Z,36.60
2023-01-20T07:34:36.873Z,40.72
2023-01-20T07:37:04.175Z,44.75
2023-01-20T07:39:31.306Z,40.17
2023-01-20T07:41:58.358Z,37.90
2023-01-20T07:44:25.405Z,39.63
2023-01-20T07:46:52.439Z,42.42
2023-01-20T07:49:19.581Z,39.17
2023-01-20T07:51:46.652Z,40.45
2023-01-20T07:54:13.774Z,37.15
2023-01-20T07:56:40.805Z,40.28
2023-01-20T07:59:07.861Z,35.97
2023-01-20T08:01:34.968Z,40.50
2023-01-20T08:04:02.311Z,45.00
2023-01-20T08:06:30.282Z,33.28
2023-01-20T08:09:01.731Z,36.33
2023-01-20T08:11:29.598Z,37.78
2023-01-20T08:13:56.765Z,41.33
2023-01-20T08:16:24.012Z,38.72
2023-01-20T08:18:54.806Z,44.13
2023-01-20T08:21:30.962Z,35.50
2023-01-20T08:23:59.945Z,35.42
2023-01-20T08:26:29.634Z,37.00
2023-01-20T08:29:06.297Z,35.58
2023-01-20T08:31:33.611Z,38.35
2023-01-20T08:34:01.145Z,38.65
2023-01-20T08:36:31.207Z,35.50
2023-01-20T08:39:02.187Z,37.20
2023-01-20T08:41:33.335Z,36.25
2023-01-20T08:44:04.599Z,39.25
2023-01-20T08:46:32.350Z,37.17
2023-01-20T08:48:59.457Z,36.10
2023-01-20T08:51:31.248Z,38.00
2023-01-20T08:53:59.020Z,37.60
2023-01-20T08:56:26.839Z,38.70
2023-01-20T08:58:54.198Z,37.20
2023-01-20T09:01:24.097Z,38.60
2023-01-20T09:04:04.950Z,33.28
2023-01-20T09:06:46.296Z,36.63
2023-01-20T09:09:15.431Z,38.47
2023-01-20T09:11:50.593Z,33.03
2023-01-20T09:14:21.660Z,37.60
2023-01-20T09:16:49.466Z,36.50
2023-01-20T09:19:18.075Z,37.05
2023-01-20T09:21:45.313Z,36.53
2023-01-20T09:24:12.395Z,35.70
2023-01-20T09:26:39.628Z,33.88
2023-01-20T09:29:11.157Z,34.95
2023-01-20T09:31:45.877Z,37.35
2023-01-20T09:34:21.585Z,36.47
2023-01-20T09:36:58.035Z,36.38
2023-01-20T09:39:54.623Z,34.05
2023-01-20T09:43:04.483Z,35.35
2023-01-20T09:45:56.953Z,32.95
2023-01-20T09:49:03.936Z,34.33
2023-01-20T09:52:00.078Z,29.63
2023-01-20T09:54:33.541Z,32.38
2023-01-20T09:57:01.853Z,34.70
2023-01-20T09:59:39.283Z,32.38
2023-01-20T10:02:17.882Z,32.35
2023-01-20T10:04:57.360Z,35.92
2023-01-20T10:07:27.242Z,32.78
2023-01-20T10:10:10.974Z,32.70
2023-01-20T10:12:58.359Z,31.30
2023-01-20T10:15:35.605Z,31.27
2023-01-20T10:18:09.463Z,32.28
2023-01-20T10:20:47.208Z,34.20
2023-01-20T10:23:33.276Z,34.28
2023-01-20T10:26:09.824Z,31.98
2023-01-20T10:28:45.759Z,31.27
2023-01-20T10:31:18.112Z,31.35
2023-01-20T10:33:45.876Z,30.60
2023-01-20T10:36:24.354Z,31.63
2023-01-20T10:38:58.184Z,31.67
2023-01-20T10:41:31.207Z,32.50
2023-01-20T10:46:56.461Z,31.73
2023-01-20T10:49:57.266Z,34.22
2023-01-20T10:52:47.322Z,32.75
2023-01-20T10:55:36.109Z,33.20
2023-01-20T10:58:14.999Z,28.92
2023-01-20T11:00:43.048Z,30.90
2023-01-20T11:03:16.023Z,30.98
2023-01-20T11:08:19.537Z,29.33
2023-01-20T11:10:51.806Z,29.67
2023-01-20T11:13:19.059Z,33.83
2023-01-20T11:15:48.438Z,32.88
2023-01-20T11:18:15.662Z,32.42
2023-01-20T11:20:58.753Z,27.08
2023-01-20T11:23:40.608Z,31.63
2023-01-20T11:26:19.772Z,28.77
2023-01-20T11:29:21.936Z,28.33
2023-01-20T11:31:54.689Z,28.70
2023-01-20T11:34:33.430Z,30.60
2023-01-20T11:37:06.439Z,33.65
2023-01-20T11:42:14.823Z,27.77
2023-01-20T11:44:50.006Z,30.10
2023-01-20T11:47:30.954Z,31.05
2023-01-20T11:50:10.048Z,32.90
2023-01-20T11:52:47.325Z,25.63
2023-01-20T11:55:20.913Z,29.10
2023-01-20T11:58:03.532Z,29.67
2023-01-20T12:00:52.282Z,28.17
2023-01-20T12:03:46.233Z,29.15
2023-01-20T12:06:33.736Z,26.33
2023-01-20T12:09:06.385Z,26.13
2023-01-20T12:11:50.667Z,27.25
2023-01-20T12:14:23.632Z,28.33
2023-01-20T12:20:05.779Z,24.17
2023-01-20T12:22:45.535Z,26.55
2023-01-20T12:25:22.144Z,26.65
2023-01-20T12:27:56.769Z,27.70
2023-01-20T12:30:38.445Z,27.65
2023-01-20T12:33:14.140Z,22.40
2023-01-20T12:35:54.421Z,21.55
2023-01-20T12:38:23.324Z,25.27
2023-01-20T12:40:54.805Z,23.00
2023-01-20T12:43:34.184Z,26.42
2023-01-20T12:46:10.283Z,22.75
2023-01-20T12:48:43.190Z,19.85
2023-01-20T12:51:57.412Z,26.33
2023-01-20T12:54:48.750Z,23.92
2023-01-20T12:57:41.207Z,24.45
2023-01-20T13:00:31.307Z,21.55
2023-01-20T13:03:17.250Z,23.48
2023-01-20T13:06:05.950Z,21.38
2023-01-20T13:08:41.617Z,27.50
2023-01-20T13:11:31.857Z,24.50
2023-01-20T13:14:13.835Z,27.75
2023-01-20T13:16:53.555Z,21.17
2023-01-20T13:19:28.704Z,24.60
2023-01-20T13:22:07.272Z,25.63
2023-01-20T13:24:35.701Z,25.33
2023-01-20T13:27:03.820Z,24.48
2023-01-20T13:29:36.636Z,25.20
2023-01-20T13:32:24.533Z,22.13
2023-01-20T13:34:51.637Z,24.10
2023-01-20T13:37:26.597Z,22.85
2023-01-20T13:39:55.043Z,23.90
2023-01-20T13:42:37.436Z,22.27
2023-01-20T13:45:13.416Z,23.67
2023-01-20T13:47:54.916Z,21.80
2023-01-20T13:50:26.602Z,21.33
2023-01-20T13:52:53.711Z,21.80
2023-01-20T13:55:45.604Z,23.75
2023-01-20T13:58:17.817Z,21.73
2023-01-20T14:00:45.949Z,23.40
2023-01-20T14:03:35.291Z,20.23
2023-01-20T14:06:21.162Z,22.08
2023-01-20T14:08:51.218Z,22.42
2023-01-20T14:11:21.897Z,24.77
2023-01-20T14:14:01.957Z,24.30
2023-01-20T14:16:30.268Z,25.63
2023-01-20T14:19:00.495Z,29.42
2023-01-20T14:21:29.735Z,27.48
2023-01-20T14:23:57.200Z,22.75
2023-01-20T14:26:25.907Z,23.85
2023-01-20T14:28:55.670Z,29.50
2023-01-20T14:31:46.473Z,26.15
2023-01-20T14:34:32.766Z,28.35
2023-01-20T14:37:17.393Z,22.92
2023-01-20T14:39:48.957Z,25.70
2023-01-20T14:42:22.408Z,27.05
2023-01-20T14:44:51.545Z,25.20
2023-01-20T14:47:20.645Z,23.55
2023-01-20T14:49:49.543Z,26.20
2023-01-20T14:52:28.788Z,27.00
2023-01-20T14:54:56.844Z,24.40
2023-01-20T14:57:34.118Z,22.90
2023-01-20T15:00:11.474Z,25.52
2023-01-20T15:02:40.166Z,22.75
2023-01-20T15:05:35.065Z,22.67
2023-01-20T15:08:26.248Z,24.52
2023-01-20T15:11:21.426Z,24.58
2023-01-20T15:14:01.257Z,28.90
2023-01-20T15:16:30.792Z,24.40
2023-01-20T15:19:20.171Z,23.83
2023-01-20T15:21:58.601Z,20.48
2023-01-20T15:24:37.472Z,23.45
2023-01-20T15:27:28.903Z,22.92
2023-01-20T15:30:16.154Z,24.52
2023-01-20T15:32:43.373Z,22.92
2023-01-20T15:35:15.346Z,22.55
2023-01-20T15:37:43.792Z,21.33
2023-01-20T15:40:15.929Z,23.08
2023-01-20T15:42:43.242Z,24.92
2023-01-20T15:45:14.443Z,23.95
2023-01-20T15:47:42.139Z,22.40
2023-01-20T15:50:35.619Z,18.98
2023-01-20T15:53:03.565Z,22.63
2023-01-20T15:55:30.789Z,22.90
2023-01-20T15:57:57.876Z,25.52
2023-01-20T16:00:24.985Z,24.08
2023-01-20T16:02:52.349Z,26.40
2023-01-20T16:05:19.809Z,24.35
2023-01-20T16:07:47.928Z,25.75
2023-01-20T16:10:17.448Z,26.88
2023-01-20T16:12:46.448Z,25.40
2023-01-20T16:15:15.404Z,26.88
2023-01-20T16:17:42.825Z,22.80
2023-01-20T16:20:22.342Z,24.25
2023-01-20T16:22:49.470Z,24.77
2023-01-20T16:25:16.665Z,25.95
2023-01-20T16:27:44.293Z,24.92
2023-01-20T16:30:22.983Z,88.88
2023-01-20T16:32:51.071Z,25.17
2023-01-20T16:35:19.336Z,22.33
2023-01-20T16:37:47.931Z,27.98
2023-01-20T16:40:20.326Z,24.48
2023-01-20T16:42:47.944Z,27.48
2023-01-20T16:45:24.253Z,27.60
2023-01-20T16:47:51.557Z,24.60
2023-01-20T16:50:18.951Z,25.58
2023-01-20T16:52:46.719Z,23.30
2023-01-20T16:55:14.036Z,24.10
2023-01-20T16:57:42.073Z,24.90
2023-01-20T17:00:10.400Z,25.55
2023-01-20T17:02:39.195Z,27.85
2023-01-20T17:05:08.226Z,26.77
2023-01-20T17:07:36.020Z,27.42
2023-01-20T17:10:03.521Z,27.38
2023-01-20T17:12:31.791Z,24.35
2023-01-20T17:14:59.116Z,22.33
2023-01-20T17:17:26.188Z,25.38
2023-01-20T17:19:53.240Z,26.70
2023-01-20T17:22:20.382Z,27.23
2023-01-20T17:24:48.276Z,24.67
2023-01-20T17:27:15.319Z,24.33
2023-01-20T17:29:42.539Z,29.73
2023-01-20T17:32:09.904Z,28.33
2023-01-20T17:34:37.124Z,24.42
2023-01-20T17:37:04.277Z,27.83
2023-01-20T17:39:31.369Z,22.75
2023-01-20T17:41:58.378Z,23.67
2023-01-20T17:44:25.486Z,28.88
2023-01-20T17:46:52.591Z,23.58
2023-01-20T17:49:19.790Z,24.00
2023-01-20T17:51:46.901Z,27.38
2023-01-20T17:54:14.113Z,24.17
2023-01-20T17:56:41.472Z,27.77
2023-01-20T17:59:08.841Z,26.92
2023-01-20T18:01:35.976Z,24.42
2023-01-20T18:04:06.375Z,24.40
2023-01-20T18:06:36.894Z,24.95
2023-01-20T18:09:07.316Z,24.35
2023-01-20T18:11:36.696Z,27.08
2023-01-20T18:14:05.535Z,26.15
2023-01-20T18:16:38.891Z,23.63
2023-01-20T18:19:06.000Z,28.52
2023-01-20T18:21:37.947Z,25.80
2023-01-20T18:24:07.534Z,25.67
2023-01-20T18:26:36.318Z,21.13
2023-01-20T18:29:06.605Z,25.48
2023-01-20T18:31:35.161Z,27.05
2023-01-20T18:34:05.294Z,24.63
2023-01-20T18:36:40.823Z,23.92
2023-01-20T18:39:12.613Z,27.33
2023-01-20T18:41:40.144Z,26.33
2023-01-20T18:44:07.312Z,24.95
2023-01-20T18:46:34.790Z,26.90
2023-01-20T18:49:02.505Z,26.92
2023-01-20T18:51:30.484Z,27.60
2023-01-20T18:54:05.913Z,30.15
2023-01-20T18:56:33.580Z,30.92
2023-01-20T18:59:01.897Z,29.20
2023-01-20T19:01:35.150Z,26.35
2023-01-20T19:04:03.656Z,30.40
2023-01-20T19:06:35.731Z,27.90
2023-01-20T19:09:03.071Z,28.15
2023-01-20T19:11:32.171Z,25.15
2023-01-20T19:13:59.589Z,30.65
2023-01-20T19:16:33.641Z,27.50
2023-01-20T19:19:02.697Z,27.40
2023-01-20T19:21:32.567Z,30.17
2023-01-20T19:24:03.035Z,27.98
2023-01-20T19:26:30.278Z,23.80
2023-01-20T19:29:02.939Z,28.10
2023-01-20T19:31:31.990Z,28.85
2023-01-20T19:33:59.461Z,30.15
2023-01-20T19:36:26.720Z,30.38
2023-01-20T19:38:54.198Z,32.30
2023-01-20T19:41:25.905Z,33.13
2023-01-20T19:43:55.600Z,31.08
2023-01-20T19:46:24.534Z,32.05
2023-01-20T19:48:53.187Z,29.08
2023-01-20T19:51:20.776Z,29.33
2023-01-20T19:53:50.174Z,28.92
2023-01-20T19:56:19.383Z,29.55
2023-01-20T19:58:47.888Z,31.83
2023-01-20T20:01:20.600Z,32.13
2023-01-20T20:03:48.422Z,29.13
2023-01-20T20:06:38.828Z,28.25
2023-01-20T20:09:10.378Z,29.83
2023-01-20T20:11:38.199Z,32.47
2023-01-20T20:14:07.530Z,31.73
2023-01-20T20:16:36.788Z,34.00
2023-01-20T20:19:05.038Z,31.00
2023-01-20T20:21:32.167Z,35.17
2023-01-20T20:24:00.614Z,33.70
2023-01-20T20:26:30.803Z,36.83
2023-01-20T20:29:00.327Z,32.17
2023-01-20T20:31:31.490Z,32.78
2023-01-20T20:33:59.714Z,35.35
2023-01-20T20:36:31.242Z,35.25
2023-01-20T20:38:59.324Z,31.70
2023-01-20T20:41:29.279Z,36.42
2023-01-20T20:43:57.592Z,34.55
2023-01-20T20:46:26.097Z,37.95
2023-01-20T20:48:54.989Z,36.75
2023-01-20T20:51:23.872Z,33.80
2023-01-20T20:53:55.257Z,38.60
2023-01-20T20:56:23.260Z,36.45
2023-01-20T20:59:00.993Z,36.05
2023-01-20T21:01:31.225Z,38.28
2023-01-20T21:04:00.571Z,37.55
2023-01-20T21:06:28.796Z,36.58
2023-01-20T21:08:56.131Z,36.53
2023-01-20T21:11:24.274Z,36.95
2023-01-20T21:13:51.939Z,42.03
2023-01-20T21:16:23.378Z,36.25
2023-01-20T21:18:52.581Z,35.63
2023-01-20T21:21:20.809Z,35.70
2023-01-20T21:23:50.265Z,31.35
2023-01-20T21:26:17.811Z,34.13
2023-01-20T21:28:45.614Z,31.10
2023-01-20T21:31:15.758Z,35.70
2023-01-20T21:33:45.928Z,33.33
2023-01-20T21:36:13.528Z,33.85
2023-01-20T21:38:43.118Z,34.25
2023-01-20T21:41:11.053Z,32.88
2023-01-20T21:43:59.103Z,30.88
2023-01-20T21:46:29.727Z,29.70
2023-01-20T21:49:15.878Z,30.73
2023-01-20T21:52:01.594Z,27.75
2023-01-20T21:54:30.031Z,30.15
2023-01-20T21:56:57.692Z,29.70
2023-01-20T21:59:25.204Z,30.58
2023-01-20T22:01:52.882Z,27.30
2023-01-20T22:04:20.030Z,28.60
2023-01-20T22:06:47.082Z,28.80
2023-01-20T22:09:14.361Z,27.45
2023-01-20T22:11:41.463Z,26.52
2023-01-20T22:14:09.878Z,21.80
2023-01-20T22:16:37.043Z,25.48
2023-01-20T22:19:04.885Z,24.25
2023-01-20T22:21:33.126Z,22.98
2023-01-20T22:24:03.906Z,27.80
2023-01-20T22:26:31.133Z,26.55
2023-01-20T22:28:58.309Z,22.98
2023-01-20T22:31:25.532Z,25.17
2023-01-20T22:33:54.273Z,25.70
2023-01-20T22:36:22.738Z,24.90
2023-01-20T22:38:51.226Z,24.60
2023-01-20T22:41:19.321Z,21.20
2023-01-20T22:43:48.199Z,22.13
2023-01-20T22:46:20.689Z,23.63
2023-01-20T22:48:48.509Z,21.30
2023-01-20T22:51:21.516Z,20.00
2023-01-20T22:56:24.660Z,20.48
2023-01-20T22:58:52.797Z,20.88
2023-01-20T23:01:21.935Z,20.60
2023-01-20T23:03:53.790Z,20.23
2023-01-20T23:06:21.383Z,22.90
2023-01-20T23:08:48.445Z,20.10
2023-01-20T23:11:17.193Z,20.60
2023-01-20T23:13:44.386Z,21.70
2023-01-20T23:16:15.225Z,19.27
2023-01-20T23:18:42.719Z,21.38
2023-01-20T23:21:10.559Z,19.30
2023-01-20T23:23:37.960Z,24.60
2023-01-20T23:26:12.078Z,19.00
2023-01-20T23:28:39.149Z,19.88
2023-01-20T23:31:09.233Z,18.52
2023-01-20T23:33:36.564Z,20.25
2023-01-20T23:36:09.491Z,21.58
2023-01-20T23:38:36.636Z,21.83
2023-01-20T23:41:04.327Z,17.95
2023-01-20T23:43:32.073Z,19.40
2023-01-20T23:46:05.009Z,20.42
2023-01-20T23:51:02.720Z,14.32
2023-01-20T23:53:31.601Z,14.07
2023-01-20T23:56:09.923Z,15.32
2023-01-20T23:58:37.035Z,15.52
